Latest Weather Observations for Rhyll

IDV60801

Issued at 7:32 pm EST Saturday 2 July 2016 (issued every 30 minutes, with the page automatically refreshed every 10 minutes)

About weather observations | Map of weather stations | Latest weather observations for VIC | Other Formats
Station Details ID: 086373 Name: RHYLL Lat: -38.46 Lon: 145.31 Height: 13.4 m
Data from the previous 72 hours. | See also: Recent months at Rhyll
Date/Time
EST
Temp
°C
App
Temp
°C
Dew
Point
°C
Rel
Hum
%
Delta-T
°C
Wind Press
QNH
hPa
Press
MSL
hPa
Rain since
9am
mm
Dir  Spd
km/h
Gust
km/h
Spd
kts
Gust
kts
02/07:30pm 12.4 11.5 9.1 80 1.7 NNW 4 7 2 4 1024.5 1024.5 0.0
02/07:00pm 12.4 11.4 8.7 78 1.8 WNW 4 11 2 6 1024.4 1024.4 0.0
02/06:30pm 12.3 10.8 8.4 77 1.9 NW 6 15 3 8 1024.4 1024.4 0.0
02/06:00pm 12.6 10.9 8.3 75 2.1 NW 7 15 4 8 1024.0 1024.0 0.0
02/05:30pm 12.7 11.2 9.0 78 1.9 NW 7 15 4 8 1023.7 1023.7 0.0
02/05:00pm 12.9 11.6 9.2 78 1.9 WNW 6 11 3 6 1023.7 1023.7 0.0
02/04:30pm 13.2 12.0 9.6 79 1.8 W 6 15 3 8 1023.6 1023.6 0.0
02/04:00pm 13.4 12.3 10.0 80 1.7 WNW 6 13 3 7 1023.6 1023.6 0.0
02/03:30pm 13.9 12.3 8.9 72 2.5 W 7 15 4 8 1023.5 1023.5 0.0
02/03:00pm 14.2 12.3 9.2 72 2.5 W 9 17 5 9 1023.5 1023.5 0.0
02/02:30pm 13.9 11.7 9.3 74 2.3 WNW 11 28 6 15 1023.2 1023.2 0.0
02/02:00pm 13.8 11.8 10.0 78 2.0 WNW 11 20 6 11 1023.1 1023.1 0.0
02/01:30pm 14.2 11.8 10.2 77 2.1 WNW 13 28 7 15 1023.1 1023.1 0.0
02/01:00pm 14.2 11.7 9.8 75 2.3 WNW 13 24 7 13 1023.2 1023.2 0.0
02/12:30pm 14.2 12.3 10.4 78 2.0 NW 11 22 6 12 1023.5 1023.5 0.0
02/12:00pm 13.6 11.6 10.2 80 1.8 NW 11 24 6 13 1023.9 1023.9 0.0
02/11:30am 12.7 11.0 9.9 83 1.4 WNW 9 19 5 10 1024.3 1024.3 0.0
02/11:00am 12.5 10.3 9.5 82 1.5 WNW 11 26 6 14 1024.3 1024.3 0.0
02/10:30am 13.1 10.7 10.1 82 1.5 NW 13 28 7 15 1024.1 1024.1 0.0
02/10:00am 12.7 10.7 10.2 85 1.3 NW 11 28 6 15 1024.2 1024.2 0.0
02/09:30am 11.9 9.9 10.0 88 1.0 NW 11 20 6 11 1024.1 1024.1 0.0
02/09:00am 11.7 10.0 9.9 89 0.9 WNW 9 22 5 12 1023.9 1023.9 0.4
02/08:30am 11.3 10.0 9.9 91 0.7 WNW 7 17 4 9 1023.6 1023.6 0.4
02/08:00am 11.1 9.4 9.9 92 0.6 WNW 9 17 5 9 1023.6 1023.6 0.4
02/07:30am 11.0 9.3 9.9 93 0.6 NW 9 20 5 11 1023.1 1023.1 0.4
02/07:00am 11.1 9.9 10.2 94 0.5 NW 7 17 4 9 1022.7 1022.7 0.4
02/06:30am 11.2 9.6 10.3 94 0.5 WNW 9 20 5 11 1022.6 1022.6 0.4
02/06:00am 11.0 9.8 10.2 95 0.4 NW 7 15 4 8 1022.4 1022.4 0.4
02/05:30am 11.1 9.5 10.2 94 0.5 NW 9 19 5 10 1022.1 1022.1 0.4
02/05:00am 10.8 9.1 9.9 94 0.5 NW 9 15 5 8 1022.0 1022.0 0.4
02/04:30am 10.9 8.8 9.8 93 0.6 NW 11 17 6 9 1021.9 1021.9 0.4
02/04:00am 11.0 9.3 9.9 93 0.6 WNW 9 20 5 11 1021.9 1021.9 0.4
02/03:30am 10.8 8.7 9.6 92 0.6 NW 11 20 6 11 1021.8 1021.8 0.4
02/03:00am 10.6 9.2 9.4 92 0.6 NW 7 13 4 7 1021.9 1021.9 0.4
02/02:30am 10.7 9.2 9.3 91 0.7 NW 7 17 4 9 1021.9 1021.9 0.4
02/02:00am 11.1 9.4 9.7 91 0.7 NW 9 17 5 9 1021.8 1021.8 0.4
02/01:30am 10.8 8.4 10.0 95 0.4 NW 13 22 7 12 1021.8 1021.8 0.4
02/01:00am 10.6 8.1 9.8 95 0.4 NW 13 22 7 12 1021.9 1021.9 0.4
02/12:30am 10.8 8.4 9.9 94 0.5 NW 13 20 7 11 1021.9 1021.9 0.4
02/12:00am 11.0 8.1 9.6 91 0.7 NW 15 24 8 13 1021.9 1021.9 0.4
 
Date/Time
EST
Temp
°C
App
Temp
°C
Dew
Point
°C
Rel
Hum
%
Delta-T
°C
Wind Press
QNH
hPa
Press
MSL
hPa
Rain since
9am
mm
Dir  Spd
km/h
Gust
km/h
Spd
kts
Gust
kts
01/11:30pm 11.3 8.7 9.4 88 1.0 NW 13 24 7 13 1022.0 1022.0 0.4
01/11:00pm 11.3 9.2 9.6 89 0.9 NW 11 19 6 10 1021.9 1021.9 0.4
01/10:30pm 11.2 8.6 9.5 89 0.9 NW 13 24 7 13 1021.8 1021.8 0.4
01/10:00pm 11.2 9.0 9.5 89 0.9 NW 11 19 6 10 1021.9 1021.9 0.4
01/09:30pm 10.9 9.1 9.5 91 0.7 NW 9 15 5 8 1021.9 1021.9 0.4
01/09:00pm 10.9 7.3 9.8 93 0.6 NNW 19 24 10 13 1021.7 1021.7 0.4
01/08:30pm 10.9 8.5 10.0 94 0.5 NNW 13 22 7 12 1021.8 1021.8 0.4
01/08:00pm 10.8 9.1 9.7 93 0.6 NW 9 20 5 11 1021.8 1021.8 0.4
01/07:30pm 10.7 9.3 9.6 93 0.6 NW 7 17 4 9 1021.8 1021.8 0.4
01/07:00pm 10.8 9.0 9.6 92 0.6 NW 9 20 5 11 1021.5 1021.5 0.4
01/06:30pm 10.7 9.4 9.8 94 0.5 NW 7 17 4 9 1021.2 1021.2 0.4
01/06:00pm 10.5 8.8 9.7 95 0.4 NW 9 19 5 10 1021.1 1021.1 0.4
01/05:30pm 10.4 8.3 9.6 95 0.4 NW 11 22 6 12 1020.8 1020.8 0.4
01/05:00pm 10.3 8.5 9.5 95 0.4 NW 9 17 5 9 1020.6 1020.6 0.4
01/04:30pm 10.3 8.1 9.4 94 0.4 NW 11 19 6 10 1020.3 1020.3 0.4
01/04:00pm 11.4 9.7 8.4 82 1.5 WNW 7 15 4 8 1020.3 1020.3 0.2
01/03:30pm 12.2 9.8 8.5 78 1.8 WNW 11 22 6 12 1019.9 1019.9 0.2
01/03:00pm 12.3 9.7 7.8 74 2.2 WNW 11 20 6 11 1019.7 1019.7 0.2
01/02:30pm 12.4 9.1 7.9 74 2.2 W 15 24 8 13 1019.5 1019.5 0.2
01/02:00pm 12.7 9.8 8.2 74 2.2 W 13 22 7 12 1019.5 1019.5 0.2
01/01:30pm 12.2 8.4 7.5 73 2.3 WSW 17 32 9 17 1019.3 1019.3 0.2
01/01:00pm 12.9 9.6 6.3 64 3.1 WSW 13 26 7 14 1019.3 1019.3 0.2
01/12:30pm 13.4 10.1 6.5 63 3.3 WSW 13 28 7 15 1019.3 1019.3 0.2
01/12:00pm 13.0 9.2 5.7 61 3.4 WSW 15 30 8 16 1019.3 1019.3 0.2
01/11:30am 13.1 9.5 8.2 72 2.4 WSW 17 30 9 16 1019.2 1019.2 0.2
01/11:00am 12.1 8.5 8.2 77 1.9 WSW 17 33 9 18 1019.2 1019.2 0.2
01/10:30am 12.0 8.7 8.1 77 1.9 SW 15 32 8 17 1018.9 1018.9 0.2
01/10:00am 10.9 8.0 9.5 91 0.7 WSW 15 24 8 13 1018.6 1018.6 0.2
01/09:30am 11.0 7.3 9.4 90 0.8 SW 19 33 10 18 1018.3 1018.3 0.0
01/09:00am 11.1 7.9 10.0 93 0.6 SW 17 28 9 15 1017.8 1017.8 6.8
01/08:30am 10.8 7.2 9.7 93 0.6 SW 19 32 10 17 1017.3 1017.3 6.8
01/08:00am 11.4 9.0 8.6 83 1.4 WSW 11 17 6 9 1016.6 1016.6 6.0
01/07:30am 11.4 8.4 7.5 77 1.9 SW 13 26 7 14 1016.0 1016.0 6.0
01/07:00am 11.5 8.7 8.4 81 1.5 SW 13 24 7 13 1015.6 1015.6 6.0
01/06:30am 11.5 7.9 8.4 81 1.5 SW 17 24 9 13 1014.9 1014.9 6.0
01/06:00am 11.4 8.0 9.0 85 1.2 SW 17 24 9 13 1014.3 1014.3 6.0
01/05:30am 9.5 8.3 9.4 99 0.0 WNW 6 17 3 9 1013.9 1013.9 6.0
01/05:00am 8.4 6.3 8.3 99 0.0 NW 9 17 5 9 1013.5 1013.5 6.0
01/04:30am 8.2 6.4 8.1 99 0.0 NW 7 17 4 9 1012.9 1012.9 5.8
01/04:00am 8.1 4.0 8.0 99 0.0 NNW 19 26 10 14 1012.5 1012.5 3.6
01/03:30am 8.1 3.8 7.7 97 0.2 NNW 20 30 11 16 1012.2 1012.2 3.4
01/03:00am 8.2 3.8 7.6 96 0.3 NNW 20 24 11 13 1011.9 1011.9 3.4
01/02:30am 8.2 4.3 7.3 94 0.4 NNW 17 26 9 14 1011.4 1011.4 3.4
01/02:00am 8.1 2.8 7.0 93 0.5 NNW 24 32 13 17 1011.0 1011.0 3.4
01/01:30am 8.0 3.1 6.9 93 0.5 NNW 22 32 12 17 1010.5 1010.5 3.4
01/01:00am 8.0 3.1 7.1 94 0.4 NNW 22 32 12 17 1010.1 1010.1 3.4
01/12:30am 8.0 3.7 6.9 93 0.5 NNW 19 28 10 15 1009.8 1009.8 3.4
01/12:00am 8.0 4.7 6.5 90 0.7 NW 13 24 7 13 1009.6 1009.6 3.4
 
Date/Time
EST
Temp
°C
App
Temp
°C
Dew
Point
°C
Rel
Hum
%
Delta-T
°C
Wind Press
QNH
hPa
Press
MSL
hPa
Rain since
9am
mm
Dir  Spd
km/h
Gust
km/h
Spd
kts
Gust
kts
30/11:30pm 8.4 5.1 6.2 86 1.0 NW 13 26 7 14 1009.6 1009.6 3.4
30/11:00pm 9.2 5.7 5.6 78 1.6 NW 13 22 7 12 1009.2 1009.2 3.4
30/10:30pm 9.5 6.1 5.7 77 1.7 NW 13 26 7 14 1008.8 1008.8 3.4
30/10:00pm 9.5 5.3 7.3 86 1.0 NNW 19 28 10 15 1008.3 1008.3 3.4
30/09:30pm 9.0 3.3 6.8 86 1.0 NNW 26 32 14 17 1007.8 1007.8 3.4
30/09:00pm 8.7 3.1 7.0 89 0.8 NNW 26 32 14 17 1007.6 1007.6 3.4
30/08:30pm 8.7 2.7 7.0 89 0.8 NNW 28 35 15 19 1007.5 1007.5 3.4
30/08:00pm 8.4 3.1 6.7 89 0.8 N 24 32 13 17 1007.4 1007.4 3.4
30/07:30pm 8.3 3.0 6.9 91 0.7 N 24 32 13 17 1007.4 1007.4 3.4
30/07:00pm 8.7 2.4 7.5 92 0.6 N 30 37 16 20 1007.1 1007.1 3.4
30/06:30pm 9.0 4.6 7.6 91 0.7 NNW 20 30 11 16 1006.9 1006.9 3.4
30/06:00pm 9.0 5.6 7.8 92 0.6 NW 15 24 8 13 1006.5 1006.5 3.4
30/05:30pm 9.1 4.2 8.3 95 0.4 NNW 24 37 13 20 1006.2 1006.2 3.4
30/05:12pm 9.3 2.9 8.7 96 0.3 NNW 32 50 17 27 1006.3 1006.3 3.2
30/05:00pm 9.4 2.4 8.5 94 0.4 NNW 35 50 19 27 1006.1 1006.1 3.2
30/04:35pm 9.7 2.7 8.3 91 0.7 NNW 35 56 19 30 1005.9 1005.9 1.6
30/04:30pm 9.9 2.4 8.0 88 0.9 NNW 37 56 20 30 1005.8 1005.8 1.2
30/04:19pm 10.6 3.7 7.3 80 1.6 NNW 33 52 18 28 1005.5 1005.5 0.6
30/04:00pm 10.9 1.8 7.0 77 1.9 NNW 44 57 24 31 1005.1 1005.1 0.6
30/03:30pm 11.4 2.4 7.1 75 2.1 NNW 44 56 24 30 1005.1 1005.1 0.6
30/03:00pm 11.3 2.9 7.4 77 1.9 NNW 41 50 22 27 1005.0 1005.0 0.6
30/02:30pm 11.6 1.4 7.1 74 2.2 NNW 50 61 27 33 1005.0 1005.0 0.6
30/02:06pm 11.3 2.9 7.2 76 2.0 NNW 41 61 22 33 1005.5 1005.5 0.6
30/02:00pm 11.1 2.4 7.6 79 1.7 NNW 43 57 23 31 1005.6 1005.6 0.6
30/01:30pm 10.6 0.5 7.3 80 1.6 N 50 61 27 33 1005.9 1005.9 0.6
30/01:00pm 11.6 2.5 6.9 73 2.2 NNW 44 56 24 30 1006.1 1006.1 0.4
30/12:30pm 11.6 2.5 6.7 72 2.3 N 44 57 24 31 1006.8 1006.8 0.4
30/12:01pm 11.5 2.5 6.4 71 2.4 N 43 61 23 33 1007.4 1007.4 0.4
30/12:00pm 11.5 2.5 6.4 71 2.4 N 43 59 23 32 1007.5 1007.5 0.4
30/11:59am 11.5 2.9 6.6 72 2.3 N 41 59 22 32 1007.5 1007.5 0.4
30/11:30am 11.4 3.2 6.7 73 2.2 N 39 48 21 26 1008.5 1008.5 0.4
30/11:00am 11.2 2.3 6.7 74 2.1 N 43 57 23 31 1009.2 1009.2 0.4
30/10:30am 10.8 2.7 7.1 78 1.8 N 39 52 21 28 1009.4 1009.4 0.4
30/10:00am 10.2 3.5 7.3 82 1.4 N 32 43 17 23 1009.8 1009.8 0.2
30/09:30am 11.0 3.9 6.6 74 2.1 N 33 46 18 25 1010.2 1010.2 0.0
30/09:00am 10.9 4.8 6.5 74 2.1 N 28 46 15 25 1010.1 1010.1 0.0
30/08:30am 10.8 2.2 6.6 75 2.0 N 41 52 22 28 1010.5 1010.5 0.0
30/08:00am 11.1 1.1 6.3 72 2.3 N 48 57 26 31 1010.8 1010.8 0.0
30/07:30am 11.2 2.1 5.9 70 2.5 N 43 54 23 29 1010.8 1010.8 0.0
30/07:00am 11.2 2.5 6.1 71 2.4 N 41 54 22 29 1010.9 1010.9 0.0
30/06:30am 11.1 2.3 5.6 69 2.5 N 41 54 22 29 1010.9 1010.9 0.0
30/06:00am 11.2 3.9 5.5 68 2.6 N 33 59 18 32 1011.2 1011.2 0.0
30/05:59am 11.1 4.0 5.6 69 2.5 N 32 57 17 31 1011.1 1011.1 0.0
30/05:30am 11.4 2.6 5.7 68 2.6 N 41 54 22 29 1012.0 1012.0 0.0
30/05:00am 11.5 2.1 5.4 66 2.8 N 44 56 24 30 1012.5 1012.5 0.0
30/04:30am 11.4 1.3 5.5 67 2.7 N 48 61 26 33 1012.9 1012.9 0.0
30/04:00am 11.1 1.3 5.4 68 2.6 N 46 59 25 32 1013.4 1013.4 0.0
30/03:30am 11.2 0.7 5.7 69 2.5 N 50 63 27 34 1014.2 1014.2 0.0
30/03:00am 11.1 -0.3 6.6 74 2.1 NNW 56 69 30 37 1014.9 1014.9 0.0
30/02:54am 11.2 -0.2 6.7 74 2.1 NNW 56 69 30 37 1015.1 1015.1 0.0
30/02:33am 11.2 3.5 6.9 75 2.0 NNW 37 57 20 31 1015.7 1015.7 0.0
30/02:30am 11.1 4.1 7.0 76 2.0 NNW 33 52 18 28 1015.7 1015.7 0.0
30/02:00am 11.2 4.2 6.9 75 2.0 NNW 33 44 18 24 1016.2 1016.2 0.0
30/01:47am 11.2 3.8 6.7 74 2.1 NNW 35 54 19 29 1016.4 1016.4 0.0
30/01:30am 11.3 3.5 6.8 74 2.1 NNW 37 50 20 27 1016.6 1016.6 0.0
30/01:00am 11.3 3.7 7.6 78 1.8 NNW 37 50 20 27 1017.0 1017.0 0.0
30/12:37am 11.5 3.9 7.6 77 1.9 NNW 37 56 20 30 1017.3 1017.3 0.0
30/12:30am 11.4 3.8 7.5 77 1.9 NNW 37 50 20 27 1017.4 1017.4 0.0
30/12:18am 11.4 4.6 7.5 77 1.9 NNW 33 54 18 29 1017.7 1017.7 0.0
30/12:00am 11.5 4.7 7.6 77 1.9 NNW 33 46 18 25 1018.0 1018.0 0.0
 
Date/Time
EST
Temp
°C
App
Temp
°C
Dew
Point
°C
Rel
Hum
%
Delta-T
°C
Wind Press
QNH
hPa
Press
MSL
hPa
Rain since
9am
mm
Dir  Spd
km/h
Gust
km/h
Spd
kts
Gust
kts
29/11:48pm 11.6 5.7 7.7 77 1.9 NNW 28 43 15 23 1018.2 1018.2 0.0
29/11:30pm 11.1 7.7 7.6 79 1.7 N 15 20 8 11 1018.6 1018.6 0.0
29/11:00pm 11.2 7.9 7.9 80 1.6 NNW 15 19 8 10 1018.8 1018.8 0.0
29/10:30pm 11.3 7.9 7.8 79 1.7 NNW 15 20 8 11 1018.7 1018.7 0.0
29/10:00pm 11.1 7.6 7.4 78 1.8 N 15 20 8 11 1018.9 1018.9 0.0
29/09:30pm 11.1 7.2 7.2 77 1.9 N 17 28 9 15 1019.0 1019.0 0.0
29/09:00pm 11.3 5.3 7.2 76 2.0 N 28 35 15 19 1019.1 1019.1 0.0
29/08:30pm 11.1 5.9 7.4 78 1.8 N 24 35 13 19 1019.3 1019.3 0.0
29/08:00pm 11.0 7.9 7.3 78 1.8 N 13 20 7 11 1019.8 1019.8 0.0

Other Formats:

Comma delimited format used in spreadsheet applications
http://www.bom.gov.au/fwo/IDV60801/IDV60801.94892.axf

JavaScript Object Notation format (JSON) in row-major order
http://www.bom.gov.au/fwo/IDV60801/IDV60801.94892.json